sensor_id;sensor_type;location;lat;lon;timestamp;P1;durP1;ratioP1;P2;durP2;ratioP2
45887;SDS011;31595;51.418;7.572;2023-07-28T00:01:48;3.50;;;3.20;;
45887;SDS011;31595;51.418;7.572;2023-07-28T00:04:14;4.35;;;3.67;;
45887;SDS011;31595;51.418;7.572;2023-07-28T00:06:43;4.32;;;3.80;;
45887;SDS011;31595;51.418;7.572;2023-07-28T00:09:09;4.93;;;4.40;;
45887;SDS011;31595;51.418;7.572;2023-07-28T00:11:36;5.88;;;4.53;;
45887;SDS011;31595;51.418;7.572;2023-07-28T00:14:03;5.25;;;4.55;;
45887;SDS011;31595;51.418;7.572;2023-07-28T00:16:30;5.50;;;4.30;;
45887;SDS011;31595;51.418;7.572;2023-07-28T00:18:57;4.57;;;4.10;;
45887;SDS011;31595;51.418;7.572;2023-07-28T00:21:24;4.90;;;4.40;;
45887;SDS011;31595;51.418;7.572;2023-07-28T00:23:52;6.15;;;4.03;;
45887;SDS011;31595;51.418;7.572;2023-07-28T00:26:20;4.97;;;4.35;;
45887;SDS011;31595;51.418;7.572;2023-07-28T00:28:47;4.63;;;4.22;;
45887;SDS011;31595;51.418;7.572;2023-07-28T00:31:17;5.30;;;4.78;;
45887;SDS011;31595;51.418;7.572;2023-07-28T00:33:44;5.32;;;4.57;;
45887;SDS011;31595;51.418;7.572;2023-07-28T00:36:11;5.05;;;4.55;;
45887;SDS011;31595;51.418;7.572;2023-07-28T00:38:37;5.18;;;4.68;;
45887;SDS011;31595;51.418;7.572;2023-07-28T00:41:06;6.47;;;4.70;;
45887;SDS011;31595;51.418;7.572;2023-07-28T00:43:34;5.68;;;5.05;;
45887;SDS011;31595;51.418;7.572;2023-07-28T00:46:03;6.88;;;5.07;;
45887;SDS011;31595;51.418;7.572;2023-07-28T00:48:32;4.32;;;3.92;;
45887;SDS011;31595;51.418;7.572;2023-07-28T00:50:58;5.07;;;4.53;;
45887;SDS011;31595;51.418;7.572;2023-07-28T00:53:25;5.53;;;4.28;;
45887;SDS011;31595;51.418;7.572;2023-07-28T00:55:52;4.10;;;3.70;;
45887;SDS011;31595;51.418;7.572;2023-07-28T00:58:21;5.30;;;4.00;;
45887;SDS011;31595;51.418;7.572;2023-07-28T01:00:48;4.15;;;3.60;;
45887;SDS011;31595;51.418;7.572;2023-07-28T01:03:14;4.45;;;3.83;;
45887;SDS011;31595;51.418;7.572;2023-07-28T01:05:47;5.20;;;3.58;;
45887;SDS011;31595;51.418;7.572;2023-07-28T01:08:16;5.47;;;3.30;;
45887;SDS011;31595;51.418;7.572;2023-07-28T01:10:46;4.00;;;3.60;;
45887;SDS011;31595;51.418;7.572;2023-07-28T01:13:13;3.88;;;3.05;;
45887;SDS011;31595;51.418;7.572;2023-07-28T01:15:41;4.57;;;3.80;;
45887;SDS011;31595;51.418;7.572;2023-07-28T01:18:08;5.90;;;3.85;;
45887;SDS011;31595;51.418;7.572;2023-07-28T01:20:37;4.03;;;3.58;;
45887;SDS011;31595;51.418;7.572;2023-07-28T01:23:08;5.32;;;3.60;;
45887;SDS011;31595;51.418;7.572;2023-07-28T01:25:47;4.20;;;3.80;;
45887;SDS011;31595;51.418;7.572;2023-07-28T01:28:15;4.30;;;3.80;;
45887;SDS011;31595;51.418;7.572;2023-07-28T01:30:42;4.90;;;3.28;;
45887;SDS011;31595;51.418;7.572;2023-07-28T01:33:08;4.03;;;2.88;;
45887;SDS011;31595;51.418;7.572;2023-07-28T01:35:36;3.13;;;2.53;;
45887;SDS011;31595;51.418;7.572;2023-07-28T01:38:03;3.30;;;3.00;;
45887;SDS011;31595;51.418;7.572;2023-07-28T01:40:30;3.78;;;2.90;;
45887;SDS011;31595;51.418;7.572;2023-07-28T01:42:56;3.10;;;2.72;;
45887;SDS011;31595;51.418;7.572;2023-07-28T01:45:25;2.95;;;2.60;;
45887;SDS011;31595;51.418;7.572;2023-07-28T01:47:53;2.92;;;2.72;;
45887;SDS011;31595;51.418;7.572;2023-07-28T01:50:20;4.45;;;2.97;;
45887;SDS011;31595;51.418;7.572;2023-07-28T01:52:47;3.22;;;2.92;;
45887;SDS011;31595;51.418;7.572;2023-07-28T01:55:14;3.20;;;2.90;;
45887;SDS011;31595;51.418;7.572;2023-07-28T01:57:40;5.15;;;2.38;;
45887;SDS011;31595;51.418;7.572;2023-07-28T02:00:17;2.88;;;2.65;;
45887;SDS011;31595;51.418;7.572;2023-07-28T02:02:45;2.70;;;2.10;;
45887;SDS011;31595;51.418;7.572;2023-07-28T02:05:12;2.47;;;2.10;;
45887;SDS011;31595;51.418;7.572;2023-07-28T02:07:39;3.65;;;2.33;;
45887;SDS011;31595;51.418;7.572;2023-07-28T02:10:13;2.97;;;2.65;;
45887;SDS011;31595;51.418;7.572;2023-07-28T02:12:45;3.30;;;2.20;;
45887;SDS011;31595;51.418;7.572;2023-07-28T02:15:15;2.78;;;2.20;;
45887;SDS011;31595;51.418;7.572;2023-07-28T02:17:42;2.95;;;2.40;;
45887;SDS011;31595;51.418;7.572;2023-07-28T02:20:10;2.67;;;2.17;;
45887;SDS011;31595;51.418;7.572;2023-07-28T02:22:38;2.40;;;1.92;;
45887;SDS011;31595;51.418;7.572;2023-07-28T02:25:05;2.53;;;2.20;;
45887;SDS011;31595;51.418;7.572;2023-07-28T02:27:32;2.30;;;1.83;;
45887;SDS011;31595;51.418;7.572;2023-07-28T02:29:59;2.67;;;2.20;;
45887;SDS011;31595;51.418;7.572;2023-07-28T02:32:26;2.53;;;1.92;;
45887;SDS011;31595;51.418;7.572;2023-07-28T02:34:54;1.95;;;1.75;;
45887;SDS011;31595;51.418;7.572;2023-07-28T02:37:22;2.22;;;2.00;;
45887;SDS011;31595;51.418;7.572;2023-07-28T02:39:49;3.10;;;2.15;;
45887;SDS011;31595;51.418;7.572;2023-07-28T02:42:16;2.08;;;1.80;;
45887;SDS011;31595;51.418;7.572;2023-07-28T02:44:45;2.75;;;2.22;;
45887;SDS011;31595;51.418;7.572;2023-07-28T02:47:15;2.40;;;1.90;;
45887;SDS011;31595;51.418;7.572;2023-07-28T02:49:42;2.38;;;1.80;;
45887;SDS011;31595;51.418;7.572;2023-07-28T02:52:10;2.58;;;2.20;;
45887;SDS011;31595;51.418;7.572;2023-07-28T02:54:38;4.63;;;2.00;;
45887;SDS011;31595;51.418;7.572;2023-07-28T02:57:05;1.98;;;1.77;;
45887;SDS011;31595;51.418;7.572;2023-07-28T02:59:32;4.20;;;2.03;;
45887;SDS011;31595;51.418;7.572;2023-07-28T03:01:58;3.17;;;1.90;;
45887;SDS011;31595;51.418;7.572;2023-07-28T03:04:25;2.47;;;1.70;;
45887;SDS011;31595;51.418;7.572;2023-07-28T03:06:55;2.17;;;1.67;;
45887;SDS011;31595;51.418;7.572;2023-07-28T03:09:22;2.92;;;1.75;;
45887;SDS011;31595;51.418;7.572;2023-07-28T03:11:49;1.70;;;1.58;;
45887;SDS011;31595;51.418;7.572;2023-07-28T03:14:19;2.15;;;1.38;;
45887;SDS011;31595;51.418;7.572;2023-07-28T03:16:45;3.03;;;1.35;;
45887;SDS011;31595;51.418;7.572;2023-07-28T03:19:13;2.42;;;1.50;;
45887;SDS011;31595;51.418;7.572;2023-07-28T03:21:39;2.10;;;1.60;;
45887;SDS011;31595;51.418;7.572;2023-07-28T03:24:06;2.10;;;1.35;;
45887;SDS011;31595;51.418;7.572;2023-07-28T03:26:36;2.45;;;1.35;;
45887;SDS011;31595;51.418;7.572;2023-07-28T03:29:04;1.90;;;1.20;;
45887;SDS011;31595;51.418;7.572;2023-07-28T03:31:31;1.90;;;1.40;;
45887;SDS011;31595;51.418;7.572;2023-07-28T03:34:01;1.83;;;1.42;;
45887;SDS011;31595;51.418;7.572;2023-07-28T03:36:27;2.33;;;1.40;;
45887;SDS011;31595;51.418;7.572;2023-07-28T03:38:54;1.83;;;1.30;;
45887;SDS011;31595;51.418;7.572;2023-07-28T03:41:21;2.00;;;1.40;;
45887;SDS011;31595;51.418;7.572;2023-07-28T03:43:48;2.65;;;1.20;;
45887;SDS011;31595;51.418;7.572;2023-07-28T03:46:16;2.08;;;1.13;;
45887;SDS011;31595;51.418;7.572;2023-07-28T03:48:42;1.92;;;1.10;;
45887;SDS011;31595;51.418;7.572;2023-07-28T03:51:09;2.90;;;1.15;;
45887;SDS011;31595;51.418;7.572;2023-07-28T03:53:36;1.80;;;1.20;;
45887;SDS011;31595;51.418;7.572;2023-07-28T03:56:03;2.40;;;1.20;;
45887;SDS011;31595;51.418;7.572;2023-07-28T03:58:30;3.25;;;1.10;;
45887;SDS011;31595;51.418;7.572;2023-07-28T04:00:57;2.55;;;1.08;;
45887;SDS011;31595;51.418;7.572;2023-07-28T04:03:25;2.75;;;1.00;;
45887;SDS011;31595;51.418;7.572;2023-07-28T04:05:52;3.22;;;1.58;;
45887;SDS011;31595;51.418;7.572;2023-07-28T04:08:18;2.13;;;1.20;;
45887;SDS011;31595;51.418;7.572;2023-07-28T04:10:45;1.80;;;1.00;;
45887;SDS011;31595;51.418;7.572;2023-07-28T04:13:12;2.10;;;1.05;;
45887;SDS011;31595;51.418;7.572;2023-07-28T04:15:39;2.17;;;1.40;;
45887;SDS011;31595;51.418;7.572;2023-07-28T04:18:06;4.00;;;1.70;;
45887;SDS011;31595;51.418;7.572;2023-07-28T04:20:34;2.25;;;1.10;;
45887;SDS011;31595;51.418;7.572;2023-07-28T04:23:00;2.85;;;1.00;;
45887;SDS011;31595;51.418;7.572;2023-07-28T04:25:27;2.30;;;1.25;;
45887;SDS011;31595;51.418;7.572;2023-07-28T04:27:54;4.70;;;1.85;;
45887;SDS011;31595;51.418;7.572;2023-07-28T04:30:21;1.80;;;1.02;;
45887;SDS011;31595;51.418;7.572;2023-07-28T04:32:48;2.10;;;0.98;;
45887;SDS011;31595;51.418;7.572;2023-07-28T04:35:15;2.25;;;0.90;;
45887;SDS011;31595;51.418;7.572;2023-07-28T04:37:43;2.38;;;0.90;;
45887;SDS011;31595;51.418;7.572;2023-07-28T04:40:10;1.77;;;1.13;;
45887;SDS011;31595;51.418;7.572;2023-07-28T04:42:37;2.13;;;1.00;;
45887;SDS011;31595;51.418;7.572;2023-07-28T04:45:05;1.85;;;1.00;;
45887;SDS011;31595;51.418;7.572;2023-07-28T04:47:32;1.60;;;0.95;;
45887;SDS011;31595;51.418;7.572;2023-07-28T04:49:58;1.92;;;1.10;;
45887;SDS011;31595;51.418;7.572;2023-07-28T04:52:25;3.88;;;1.33;;
45887;SDS011;31595;51.418;7.572;2023-07-28T04:54:53;1.65;;;1.00;;
45887;SDS011;31595;51.418;7.572;2023-07-28T04:57:20;3.17;;;1.20;;
45887;SDS011;31595;51.418;7.572;2023-07-28T04:59:47;2.05;;;1.10;;
45887;SDS011;31595;51.418;7.572;2023-07-28T05:02:14;2.50;;;0.90;;
45887;SDS011;31595;51.418;7.572;2023-07-28T05:04:40;2.45;;;0.90;;
45887;SDS011;31595;51.418;7.572;2023-07-28T05:07:07;1.85;;;0.90;;
45887;SDS011;31595;51.418;7.572;2023-07-28T05:09:36;1.40;;;0.70;;
45887;SDS011;31595;51.418;7.572;2023-07-28T05:12:05;2.42;;;0.70;;
45887;SDS011;31595;51.418;7.572;2023-07-28T05:14:33;1.10;;;0.70;;
45887;SDS011;31595;51.418;7.572;2023-07-28T05:17:00;1.95;;;0.80;;
45887;SDS011;31595;51.418;7.572;2023-07-28T05:19:28;1.95;;;0.82;;
45887;SDS011;31595;51.418;7.572;2023-07-28T05:21:55;1.73;;;1.02;;
45887;SDS011;31595;51.418;7.572;2023-07-28T05:24:21;2.47;;;1.08;;
45887;SDS011;31595;51.418;7.572;2023-07-28T05:26:48;2.75;;;1.00;;
45887;SDS011;31595;51.418;7.572;2023-07-28T05:29:16;1.58;;;0.88;;
45887;SDS011;31595;51.418;7.572;2023-07-28T05:31:43;2.22;;;1.00;;
45887;SDS011;31595;51.418;7.572;2023-07-28T05:34:10;2.03;;;1.02;;
45887;SDS011;31595;51.418;7.572;2023-07-28T05:36:37;1.95;;;1.15;;
45887;SDS011;31595;51.418;7.572;2023-07-28T05:39:04;2.72;;;0.75;;
45887;SDS011;31595;51.418;7.572;2023-07-28T05:41:31;1.85;;;0.90;;
45887;SDS011;31595;51.418;7.572;2023-07-28T05:43:58;1.30;;;0.77;;
45887;SDS011;31595;51.418;7.572;2023-07-28T05:46:26;1.35;;;0.80;;
45887;SDS011;31595;51.418;7.572;2023-07-28T05:48:53;1.77;;;1.10;;
45887;SDS011;31595;51.418;7.572;2023-07-28T05:51:20;1.30;;;0.75;;
45887;SDS011;31595;51.418;7.572;2023-07-28T05:53:47;1.83;;;0.80;;
45887;SDS011;31595;51.418;7.572;2023-07-28T05:56:14;1.60;;;0.93;;
45887;SDS011;31595;51.418;7.572;2023-07-28T05:58:41;2.28;;;1.10;;
45887;SDS011;31595;51.418;7.572;2023-07-28T06:01:08;2.15;;;1.00;;
45887;SDS011;31595;51.418;7.572;2023-07-28T06:03:36;2.30;;;0.82;;
45887;SDS011;31595;51.418;7.572;2023-07-28T06:06:02;3.10;;;1.05;;
45887;SDS011;31595;51.418;7.572;2023-07-28T06:08:29;1.30;;;0.85;;
45887;SDS011;31595;51.418;7.572;2023-07-28T06:10:56;2.05;;;0.88;;
45887;SDS011;31595;51.418;7.572;2023-07-28T06:13:23;1.25;;;0.80;;
45887;SDS011;31595;51.418;7.572;2023-07-28T06:15:52;1.77;;;0.88;;
45887;SDS011;31595;51.418;7.572;2023-07-28T06:18:19;2.58;;;1.00;;
45887;SDS011;31595;51.418;7.572;2023-07-28T06:20:49;1.30;;;0.70;;
45887;SDS011;31595;51.418;7.572;2023-07-28T06:23:15;1.98;;;0.88;;
45887;SDS011;31595;51.418;7.572;2023-07-28T06:25:42;2.15;;;0.90;;
45887;SDS011;31595;51.418;7.572;2023-07-28T06:28:11;1.42;;;0.88;;
45887;SDS011;31595;51.418;7.572;2023-07-28T06:30:38;1.17;;;0.73;;
45887;SDS011;31595;51.418;7.572;2023-07-28T06:33:05;2.85;;;1.00;;
45887;SDS011;31595;51.418;7.572;2023-07-28T06:35:32;1.75;;;1.10;;
45887;SDS011;31595;51.418;7.572;2023-07-28T06:38:00;1.98;;;0.90;;
45887;SDS011;31595;51.418;7.572;2023-07-28T06:40:27;1.40;;;0.80;;
45887;SDS011;31595;51.418;7.572;2023-07-28T06:42:54;1.67;;;0.88;;
45887;SDS011;31595;51.418;7.572;2023-07-28T06:45:21;1.30;;;0.80;;
45887;SDS011;31595;51.418;7.572;2023-07-28T06:47:48;1.30;;;0.93;;
45887;SDS011;31595;51.418;7.572;2023-07-28T06:50:16;2.05;;;0.77;;
45887;SDS011;31595;51.418;7.572;2023-07-28T06:52:43;1.63;;;0.80;;
45887;SDS011;31595;51.418;7.572;2023-07-28T06:55:11;1.48;;;0.75;;
45887;SDS011;31595;51.418;7.572;2023-07-28T06:57:38;1.88;;;0.80;;
45887;SDS011;31595;51.418;7.572;2023-07-28T07:00:05;1.48;;;0.90;;
45887;SDS011;31595;51.418;7.572;2023-07-28T07:05:01;2.80;;;0.98;;
45887;SDS011;31595;51.418;7.572;2023-07-28T07:07:29;1.02;;;0.63;;
45887;SDS011;31595;51.418;7.572;2023-07-28T07:09:59;1.20;;;0.80;;
45887;SDS011;31595;51.418;7.572;2023-07-28T07:12:27;1.92;;;1.00;;
45887;SDS011;31595;51.418;7.572;2023-07-28T07:14:54;2.25;;;0.90;;
45887;SDS011;31595;51.418;7.572;2023-07-28T07:17:21;1.55;;;1.00;;
45887;SDS011;31595;51.418;7.572;2023-07-28T07:19:47;1.60;;;1.00;;
45887;SDS011;31595;51.418;7.572;2023-07-28T07:22:14;1.90;;;1.40;;
45887;SDS011;31595;51.418;7.572;2023-07-28T07:24:41;2.50;;;1.90;;
45887;SDS011;31595;51.418;7.572;2023-07-28T07:27:08;2.67;;;2.25;;
45887;SDS011;31595;51.418;7.572;2023-07-28T07:29:38;2.70;;;2.35;;
45887;SDS011;31595;51.418;7.572;2023-07-28T07:32:05;3.95;;;2.80;;
45887;SDS011;31595;51.418;7.572;2023-07-28T07:34:32;2.60;;;2.20;;
45887;SDS011;31595;51.418;7.572;2023-07-28T07:37:00;2.53;;;2.03;;
45887;SDS011;31595;51.418;7.572;2023-07-28T07:39:27;3.00;;;1.52;;
45887;SDS011;31595;51.418;7.572;2023-07-28T07:41:53;2.78;;;2.30;;
45887;SDS011;31595;51.418;7.572;2023-07-28T07:44:20;3.28;;;1.98;;
45887;SDS011;31595;51.418;7.572;2023-07-28T07:46:49;2.03;;;1.60;;
45887;SDS011;31595;51.418;7.572;2023-07-28T07:49:16;2.40;;;1.73;;
45887;SDS011;31595;51.418;7.572;2023-07-28T07:51:43;2.10;;;1.90;;
45887;SDS011;31595;51.418;7.572;2023-07-28T07:54:10;3.55;;;1.90;;
45887;SDS011;31595;51.418;7.572;2023-07-28T07:56:41;2.55;;;1.90;;
45887;SDS011;31595;51.418;7.572;2023-07-28T07:59:07;2.67;;;1.95;;
45887;SDS011;31595;51.418;7.572;2023-07-28T08:01:34;2.65;;;1.90;;
45887;SDS011;31595;51.418;7.572;2023-07-28T08:04:02;2.65;;;2.20;;
45887;SDS011;31595;51.418;7.572;2023-07-28T08:06:29;3.80;;;1.92;;
45887;SDS011;31595;51.418;7.572;2023-07-28T08:08:56;3.13;;;2.03;;
45887;SDS011;31595;51.418;7.572;2023-07-28T08:11:24;2.10;;;1.80;;
45887;SDS011;31595;51.418;7.572;2023-07-28T08:13:51;3.65;;;2.50;;
45887;SDS011;31595;51.418;7.572;2023-07-28T08:16:18;2.67;;;2.42;;
45887;SDS011;31595;51.418;7.572;2023-07-28T08:18:47;2.60;;;2.30;;
45887;SDS011;31595;51.418;7.572;2023-07-28T08:21:16;3.13;;;2.45;;
45887;SDS011;31595;51.418;7.572;2023-07-28T08:23:42;5.55;;;2.72;;
45887;SDS011;31595;51.418;7.572;2023-07-28T08:26:09;4.47;;;2.78;;
45887;SDS011;31595;51.418;7.572;2023-07-28T08:28:36;2.25;;;1.80;;
45887;SDS011;31595;51.418;7.572;2023-07-28T08:31:15;3.65;;;2.10;;
45887;SDS011;31595;51.418;7.572;2023-07-28T08:33:42;2.90;;;2.15;;
45887;SDS011;31595;51.418;7.572;2023-07-28T08:36:09;2.20;;;1.98;;
45887;SDS011;31595;51.418;7.572;2023-07-28T08:38:37;2.83;;;2.22;;
45887;SDS011;31595;51.418;7.572;2023-07-28T08:41:04;2.22;;;1.98;;
45887;SDS011;31595;51.418;7.572;2023-07-28T08:43:31;2.42;;;1.50;;
45887;SDS011;31595;51.418;7.572;2023-07-28T08:45:58;2.50;;;1.30;;
45887;SDS011;31595;51.418;7.572;2023-07-28T08:48:25;1.73;;;1.35;;
45887;SDS011;31595;51.418;7.572;2023-07-28T08:50:52;2.00;;;1.40;;
45887;SDS011;31595;51.418;7.572;2023-07-28T08:53:19;1.55;;;1.20;;
45887;SDS011;31595;51.418;7.572;2023-07-28T08:55:47;1.70;;;1.38;;
45887;SDS011;31595;51.418;7.572;2023-07-28T08:58:14;1.75;;;1.40;;
45887;SDS011;31595;51.418;7.572;2023-07-28T09:00:41;1.55;;;1.02;;
45887;SDS011;31595;51.418;7.572;2023-07-28T09:03:09;1.40;;;1.02;;
45887;SDS011;31595;51.418;7.572;2023-07-28T09:05:36;1.92;;;1.30;;
45887;SDS011;31595;51.418;7.572;2023-07-28T09:08:06;1.40;;;1.00;;
45887;SDS011;31595;51.418;7.572;2023-07-28T09:10:40;2.22;;;1.30;;
45887;SDS011;31595;51.418;7.572;2023-07-28T09:13:10;1.40;;;1.10;;
45887;SDS011;31595;51.418;7.572;2023-07-28T09:15:37;1.65;;;1.13;;
45887;SDS011;31595;51.418;7.572;2023-07-28T09:18:06;1.48;;;1.00;;
45887;SDS011;31595;51.418;7.572;2023-07-28T09:23:00;3.03;;;1.20;;
45887;SDS011;31595;51.418;7.572;2023-07-28T09:25:27;2.13;;;1.30;;
45887;SDS011;31595;51.418;7.572;2023-07-28T09:27:54;1.83;;;1.30;;
45887;SDS011;31595;51.418;7.572;2023-07-28T09:30:23;1.92;;;1.48;;
45887;SDS011;31595;51.418;7.572;2023-07-28T09:32:51;2.20;;;1.70;;
45887;SDS011;31595;51.418;7.572;2023-07-28T09:35:18;2.35;;;1.65;;
45887;SDS011;31595;51.418;7.572;2023-07-28T09:37:46;2.00;;;1.27;;
45887;SDS011;31595;51.418;7.572;2023-07-28T09:40:19;2.53;;;1.20;;
45887;SDS011;31595;51.418;7.572;2023-07-28T09:42:47;1.70;;;1.10;;
45887;SDS011;31595;51.418;7.572;2023-07-28T09:45:16;1.60;;;1.10;;
45887;SDS011;31595;51.418;7.572;2023-07-28T09:47:45;1.55;;;1.02;;
45887;SDS011;31595;51.418;7.572;2023-07-28T09:50:14;1.90;;;1.13;;
45887;SDS011;31595;51.418;7.572;2023-07-28T09:52:42;1.67;;;1.30;;
45887;SDS011;31595;51.418;7.572;2023-07-28T09:55:10;4.20;;;1.38;;
45887;SDS011;31595;51.418;7.572;2023-07-28T09:57:39;1.70;;;1.30;;
45887;SDS011;31595;51.418;7.572;2023-07-28T10:00:08;2.75;;;1.58;;
45887;SDS011;31595;51.418;7.572;2023-07-28T10:02:37;1.83;;;1.30;;
45887;SDS011;31595;51.418;7.572;2023-07-28T10:05:05;2.70;;;1.25;;
45887;SDS011;31595;51.418;7.572;2023-07-28T10:07:33;1.65;;;1.23;;
45887;SDS011;31595;51.418;7.572;2023-07-28T10:10:00;3.28;;;1.42;;
45887;SDS011;31595;51.418;7.572;2023-07-28T10:12:28;2.22;;;1.33;;
45887;SDS011;31595;51.418;7.572;2023-07-28T10:15:01;2.22;;;1.58;;
45887;SDS011;31595;51.418;7.572;2023-07-28T10:17:30;3.67;;;1.55;;
45887;SDS011;31595;51.418;7.572;2023-07-28T10:19:57;2.15;;;1.50;;
45887;SDS011;31595;51.418;7.572;2023-07-28T10:22:26;1.48;;;1.30;;
45887;SDS011;31595;51.418;7.572;2023-07-28T10:25:05;3.23;;;1.87;;
45887;SDS011;31595;51.418;7.572;2023-07-28T10:27:34;2.00;;;1.80;;
45887;SDS011;31595;51.418;7.572;2023-07-28T10:30:03;2.17;;;1.60;;
45887;SDS011;31595;51.418;7.572;2023-07-28T10:32:36;3.40;;;1.70;;
45887;SDS011;31595;51.418;7.572;2023-07-28T10:35:06;3.47;;;1.98;;
45887;SDS011;31595;51.418;7.572;2023-07-28T10:37:34;2.30;;;1.65;;
45887;SDS011;31595;51.418;7.572;2023-07-28T10:40:23;2.75;;;1.60;;
45887;SDS011;31595;51.418;7.572;2023-07-28T10:42:50;2.85;;;1.70;;
45887;SDS011;31595;51.418;7.572;2023-07-28T10:45:17;3.75;;;1.55;;
45887;SDS011;31595;51.418;7.572;2023-07-28T10:47:44;2.53;;;1.50;;
45887;SDS011;31595;51.418;7.572;2023-07-28T10:50:11;2.40;;;1.65;;
45887;SDS011;31595;51.418;7.572;2023-07-28T10:52:40;2.88;;;2.08;;
45887;SDS011;31595;51.418;7.572;2023-07-28T10:55:11;2.92;;;2.63;;
45887;SDS011;31595;51.418;7.572;2023-07-28T10:57:38;4.82;;;2.80;;
45887;SDS011;31595;51.418;7.572;2023-07-28T11:00:06;2.90;;;2.60;;
45887;SDS011;31595;51.418;7.572;2023-07-28T11:02:33;3.17;;;2.80;;
45887;SDS011;31595;51.418;7.572;2023-07-28T11:05:00;3.85;;;2.50;;
45887;SDS011;31595;51.418;7.572;2023-07-28T11:07:31;2.80;;;2.50;;
45887;SDS011;31595;51.418;7.572;2023-07-28T11:10:00;3.28;;;2.45;;
45887;SDS011;31595;51.418;7.572;2023-07-28T11:12:28;2.65;;;2.22;;
45887;SDS011;31595;51.418;7.572;2023-07-28T11:14:55;2.67;;;2.47;;
45887;SDS011;31595;51.418;7.572;2023-07-28T11:17:21;3.47;;;2.35;;
45887;SDS011;31595;51.418;7.572;2023-07-28T11:19:48;2.65;;;2.05;;
45887;SDS011;31595;51.418;7.572;2023-07-28T11:22:16;3.03;;;2.10;;
45887;SDS011;31595;51.418;7.572;2023-07-28T11:24:43;4.07;;;1.80;;
45887;SDS011;31595;51.418;7.572;2023-07-28T11:27:12;2.53;;;1.95;;
45887;SDS011;31595;51.418;7.572;2023-07-28T11:29:39;3.25;;;2.00;;
45887;SDS011;31595;51.418;7.572;2023-07-28T11:32:07;2.95;;;2.25;;
45887;SDS011;31595;51.418;7.572;2023-07-28T11:34:35;1.85;;;1.50;;
45887;SDS011;31595;51.418;7.572;2023-07-28T11:37:02;2.65;;;1.85;;
45887;SDS011;31595;51.418;7.572;2023-07-28T11:39:30;2.38;;;1.90;;
45887;SDS011;31595;51.418;7.572;2023-07-28T11:41:57;2.67;;;1.40;;
45887;SDS011;31595;51.418;7.572;2023-07-28T11:44:26;2.35;;;1.70;;
45887;SDS011;31595;51.418;7.572;2023-07-28T11:46:54;1.83;;;1.40;;
45887;SDS011;31595;51.418;7.572;2023-07-28T11:49:21;1.52;;;1.38;;
45887;SDS011;31595;51.418;7.572;2023-07-28T11:51:49;2.33;;;1.42;;
45887;SDS011;31595;51.418;7.572;2023-07-28T11:54:16;1.80;;;1.30;;
45887;SDS011;31595;51.418;7.572;2023-07-28T11:56:47;3.67;;;1.35;;
45887;SDS011;31595;51.418;7.572;2023-07-28T11:59:15;2.00;;;1.35;;
45887;SDS011;31595;51.418;7.572;2023-07-28T12:01:54;3.35;;;1.70;;
45887;SDS011;31595;51.418;7.572;2023-07-28T12:04:22;4.15;;;1.60;;
45887;SDS011;31595;51.418;7.572;2023-07-28T12:07:02;1.55;;;1.30;;
45887;SDS011;31595;51.418;7.572;2023-07-28T12:09:30;1.75;;;1.08;;
45887;SDS011;31595;51.418;7.572;2023-07-28T12:11:57;1.50;;;1.20;;
45887;SDS011;31595;51.418;7.572;2023-07-28T12:14:30;4.38;;;1.15;;
45887;SDS011;31595;51.418;7.572;2023-07-28T12:16:59;2.53;;;1.20;;
45887;SDS011;31595;51.418;7.572;2023-07-28T12:19:25;3.25;;;1.00;;
45887;SDS011;31595;51.418;7.572;2023-07-28T12:21:55;2.70;;;1.20;;
45887;SDS011;31595;51.418;7.572;2023-07-28T12:24:22;1.48;;;1.05;;
45887;SDS011;31595;51.418;7.572;2023-07-28T12:26:50;2.22;;;1.00;;
45887;SDS011;31595;51.418;7.572;2023-07-28T12:29:17;4.82;;;1.10;;
45887;SDS011;31595;51.418;7.572;2023-07-28T12:31:44;1.30;;;1.00;;
45887;SDS011;31595;51.418;7.572;2023-07-28T12:34:12;1.88;;;0.95;;
45887;SDS011;31595;51.418;7.572;2023-07-28T12:36:39;2.83;;;1.45;;
45887;SDS011;31595;51.418;7.572;2023-07-28T12:39:06;3.92;;;1.40;;
45887;SDS011;31595;51.418;7.572;2023-07-28T12:41:33;1.67;;;1.10;;
45887;SDS011;31595;51.418;7.572;2023-07-28T12:43:59;1.77;;;1.02;;
45887;SDS011;31595;51.418;7.572;2023-07-28T12:46:26;1.83;;;1.10;;
45887;SDS011;31595;51.418;7.572;2023-07-28T12:48:53;1.80;;;1.02;;
45887;SDS011;31595;51.418;7.572;2023-07-28T12:51:21;1.20;;;0.90;;
45887;SDS011;31595;51.418;7.572;2023-07-28T12:56:15;1.85;;;0.90;;
45887;SDS011;31595;51.418;7.572;2023-07-28T12:58:42;1.30;;;0.80;;
45887;SDS011;31595;51.418;7.572;2023-07-28T13:01:08;3.50;;;1.08;;
45887;SDS011;31595;51.418;7.572;2023-07-28T13:06:04;0.98;;;0.60;;
45887;SDS011;31595;51.418;7.572;2023-07-28T13:08:32;1.20;;;0.70;;
45887;SDS011;31595;51.418;7.572;2023-07-28T13:10:59;1.25;;;0.85;;
45887;SDS011;31595;51.418;7.572;2023-07-28T13:13:26;1.92;;;0.80;;
45887;SDS011;31595;51.418;7.572;2023-07-28T13:15:56;1.48;;;1.00;;
45887;SDS011;31595;51.418;7.572;2023-07-28T13:18:23;3.17;;;1.20;;
45887;SDS011;31595;51.418;7.572;2023-07-28T13:20:50;1.35;;;0.73;;
45887;SDS011;31595;51.418;7.572;2023-07-28T13:23:17;1.70;;;0.90;;
45887;SDS011;31595;51.418;7.572;2023-07-28T13:25:45;1.42;;;0.80;;
45887;SDS011;31595;51.418;7.572;2023-07-28T13:28:12;1.30;;;0.70;;
45887;SDS011;31595;51.418;7.572;2023-07-28T13:30:40;1.92;;;0.80;;
45887;SDS011;31595;51.418;7.572;2023-07-28T13:33:07;1.20;;;0.80;;
45887;SDS011;31595;51.418;7.572;2023-07-28T13:35:33;1.20;;;0.90;;
45887;SDS011;31595;51.418;7.572;2023-07-28T13:38:00;1.70;;;0.90;;
45887;SDS011;31595;51.418;7.572;2023-07-28T13:40:27;1.33;;;0.80;;
45887;SDS011;31595;51.418;7.572;2023-07-28T13:42:55;1.20;;;0.70;;
45887;SDS011;31595;51.418;7.572;2023-07-28T13:45:22;1.92;;;0.80;;
45887;SDS011;31595;51.418;7.572;2023-07-28T13:47:49;1.58;;;0.80;;
45887;SDS011;31595;51.418;7.572;2023-07-28T13:50:16;1.60;;;0.90;;
45887;SDS011;31595;51.418;7.572;2023-07-28T13:52:43;1.38;;;0.82;;
45887;SDS011;31595;51.418;7.572;2023-07-28T13:55:10;2.53;;;0.90;;
45887;SDS011;31595;51.418;7.572;2023-07-28T13:57:37;2.80;;;0.70;;
45887;SDS011;31595;51.418;7.572;2023-07-28T14:00:07;2.60;;;0.80;;
45887;SDS011;31595;51.418;7.572;2023-07-28T14:02:36;1.95;;;0.90;;
45887;SDS011;31595;51.418;7.572;2023-07-28T14:05:03;1.52;;;0.80;;
45887;SDS011;31595;51.418;7.572;2023-07-28T14:07:30;1.50;;;0.80;;
45887;SDS011;31595;51.418;7.572;2023-07-28T14:09:57;1.77;;;0.90;;
45887;SDS011;31595;51.418;7.572;2023-07-28T14:12:24;1.40;;;0.88;;
45887;SDS011;31595;51.418;7.572;2023-07-28T14:14:51;2.78;;;0.80;;
45887;SDS011;31595;51.418;7.572;2023-07-28T14:17:19;1.80;;;0.90;;
45887;SDS011;31595;51.418;7.572;2023-07-28T14:19:46;1.60;;;0.80;;
45887;SDS011;31595;51.418;7.572;2023-07-28T14:22:18;1.48;;;0.73;;
45887;SDS011;31595;51.418;7.572;2023-07-28T14:24:45;1.95;;;0.85;;
45887;SDS011;31595;51.418;7.572;2023-07-28T14:27:11;2.10;;;0.82;;
45887;SDS011;31595;51.418;7.572;2023-07-28T14:29:38;1.45;;;0.93;;
45887;SDS011;31595;51.418;7.572;2023-07-28T14:32:05;1.38;;;0.90;;
45887;SDS011;31595;51.418;7.572;2023-07-28T14:34:33;1.40;;;0.80;;
45887;SDS011;31595;51.418;7.572;2023-07-28T14:37:01;1.77;;;0.77;;
45887;SDS011;31595;51.418;7.572;2023-07-28T14:39:31;1.73;;;0.82;;
45887;SDS011;31595;51.418;7.572;2023-07-28T14:41:58;1.40;;;0.80;;
45887;SDS011;31595;51.418;7.572;2023-07-28T14:44:25;2.10;;;1.00;;
45887;SDS011;31595;51.418;7.572;2023-07-28T14:46:52;1.50;;;0.90;;
45887;SDS011;31595;51.418;7.572;2023-07-28T14:49:18;1.58;;;0.80;;
45887;SDS011;31595;51.418;7.572;2023-07-28T14:51:49;1.67;;;1.10;;
45887;SDS011;31595;51.418;7.572;2023-07-28T14:54:18;2.00;;;0.75;;
45887;SDS011;31595;51.418;7.572;2023-07-28T14:56:45;1.48;;;0.98;;
45887;SDS011;31595;51.418;7.572;2023-07-28T14:59:12;1.58;;;0.95;;
45887;SDS011;31595;51.418;7.572;2023-07-28T15:01:41;1.98;;;1.10;;